Citrix Systems Gross Margin 2006-2021 | CTXS

Current and historical gross margin for Citrix Systems (CTXS) over the last 10 years. The current gross profit margin for Citrix Systems as of June 30, 2021 is %.
Citrix Systems Gross Margin Historical Data
Date TTM Revenue TTM Gross Profit Gross Margin
2021-06-30 $3.17B $2.60B 82.12%
2021-03-31 $3.15B $2.63B 83.28%
2020-12-31 $3.24B $2.74B 84.58%
2020-09-30 $3.24B $2.75B 85.05%
2020-06-30 $3.20B $2.72B 84.89%
2020-03-31 $3.15B $2.68B 85.00%
2019-12-31 $3.01B $2.55B 84.59%
2019-09-30 $3.00B $2.55B 84.75%
2019-06-30 $3.00B $2.57B 85.54%
2019-03-31 $3.00B $2.56B 85.61%
2018-12-31 $2.97B $2.54B 85.47%
2018-09-30 $2.95B $2.51B 85.05%
2018-06-30 $2.91B $2.46B 84.73%
2018-03-31 $2.86B $2.41B 84.44%
2017-12-31 $2.83B $2.39B 84.42%
2017-09-30 $2.78B $2.36B 84.97%
2017-06-30 $2.76B $2.35B 85.14%
2017-03-31 $2.74B $2.33B 85.11%
2016-12-31 $2.74B $2.33B 85.20%
2016-09-30 $2.28B $1.91B 83.88%
2016-06-30 $2.42B $2.01B 82.86%
2016-03-31 $2.54B $2.10B 82.67%
2015-12-31 $2.65B $2.17B 82.09%
2015-09-30 $3.22B $2.64B 81.81%
2015-06-30 $3.17B $2.59B 81.82%
2015-03-31 $3.15B $2.53B 80.37%
2014-12-31 $3.14B $2.52B 80.24%
2014-09-30 $3.09B $2.51B 81.16%
2014-06-30 $3.05B $2.48B 81.27%
2014-03-31 $3.00B $2.47B 82.58%
2013-12-31 $2.92B $2.42B 82.80%
2013-09-30 $2.86B $2.37B 83.09%
2013-06-30 $2.78B $2.32B 83.30%
2013-03-31 $2.67B $2.24B 83.81%
2012-12-31 $2.59B $2.18B 84.41%
2012-09-30 $2.46B $2.10B 85.06%
2012-06-30 $2.39B $2.05B 85.72%
2012-03-31 $2.30B $1.99B 86.15%
2011-12-31 $2.21B $1.91B 86.72%
2011-09-30 $2.12B $1.83B 86.63%
2011-06-30 $2.02B $1.76B 87.06%
2011-03-31 $1.95B $1.71B 87.54%
2010-12-31 $1.87B $1.64B 87.67%
2010-09-30 $1.80B $1.58B 88.25%
2010-06-30 $1.72B $1.53B 88.52%
2010-03-31 $1.66B $1.47B 88.61%
2009-12-31 $1.61B $1.43B 88.48%
2009-09-30 $1.58B $1.40B 88.54%
2009-06-30 $1.58B $1.40B 88.71%
2009-03-31 $1.58B $1.40B 88.58%
2008-12-31 $1.58B $1.41B 88.95%
2008-09-30 $1.57B $1.40B 89.22%
2008-06-30 $1.52B $1.36B 89.27%
2008-03-31 $1.46B $1.31B 89.87%
2007-12-31 $1.39B $1.26B 90.16%
2007-09-30 $1.31B $1.19B 90.56%
2007-06-30 $1.24B $1.13B 90.98%
2007-03-31 $1.18B $1.08B 91.12%
2006-12-31 $1.13B $1.04B 91.36%
2006-09-30 $1.08B $0.99B 91.50%
2006-06-30 $1.03B $0.95B 91.85%
2006-03-31 $0.97B $0.90B 92.66%
2005-12-31 $0.91B $0.85B 93.62%
Sector Industry Market Cap Revenue
Computer and Technology Computer Software $13.784B $3.237B
Citrix Systems, Inc. aims to power a world where people, organizations and things are securely connected and accessible to make the extraordinary possible. They help customers reimaging the future of work by providing the most comprehensive secure digital workspace that unifies the apps, data and services people need to be productive, and simplifies IT's ability to adopt and manage complex cloud environments. Citrix Systems become the leader in Workspace as a Service (WaaS) by delivering the industry's most comprehensive and integrated platform for secure app, data and network delivery as a service in the Citrix Cloud. Citrix Systems become the preferred and most-used solution for enterprise file synchronization and sharing (EFSS) for business users across all segments.
Stock Name Country Market Cap PE Ratio
Microsoft (MSFT) United States $2293.695B 38.30
Adobe (ADBE) United States $316.858B 68.29
Salesforce, Inc (CRM) United States $254.892B 76.13
Oracle (ORCL) United States $238.906B 20.63
SAP SE (SAP) Germany $177.961B 22.63
Intuit (INTU) United States $156.449B 76.38
Dassault Systemes SA (DASTY) France $79.473B 69.78
Autodesk (ADSK) United States $63.906B 106.87
VMware (VMW) United States $58.579B 27.54
Synopsys (SNPS) United States $51.146B 69.87
Cadence Design Systems (CDNS) United States $46.391B 64.96
ANSYS (ANSS) United States $32.676B 65.70
SS&C Technologies Holdings (SSNC) United States $18.141B 16.26
Nuance Communications (NUAN) United States $17.377B 153.47
PTC (PTC) United States $14.731B 51.43
Open Text (OTEX) Canada $14.256B 16.24
Pegasystems (PEGA) United States $10.749B 0.00
Manhattan Associates (MANH) United States $10.124B 107.89
Aspen Technology (AZPN) United States $8.597B 38.15
Trend Micro (TMICY) Japan $8.141B 30.45
Descartes Systems Group (DSGX) Canada $6.970B 99.24
MicroStrategy (MSTR) United States $6.170B 114.47
BlackBerry (BB) Canada $5.761B 254.00
Cornerstone OnDemand (CSOD) United States $3.820B 22.18
ACI Worldwide (ACIW) United States $3.744B 21.83
CommVault Systems (CVLT) United States $3.594B 93.29
Blackbaud (BLKB) United States $3.321B 56.61
Verint Systems (VRNT) United States $2.928B 21.22
Progress Software (PRGS) United States $2.021B 15.61
Bottomline Technologies (EPAY) United States $1.861B 177.30
QAD (QADB) United States $1.828B 120.83
PROS Holdings (PRO) United States $1.762B 0.00
Sapiens (SPNS) Israel $1.544B 27.64
Canaan (CAN) China $1.227B 0.00
OptimizeRx (OPRX) United States $1.225B 631.91
Avid Technology (AVID) United States $1.204B 30.00
Magic Software Enterprises (MGIC) Israel $1.022B 24.81
Simulations Plus (SLP) United States $0.888B 77.39
American Software (AMSWA) United States $0.835B 89.57
Icad Inc (ICAD) United States $0.259B 0.00
Smith Micro Software (SMSI) United States $0.253B 0.00
ServiceSource (SREV) United States $0.134B 0.00
Park City (PCYG) United States $0.103B 48.27
Neonode (NEON) Sweden $0.067B 0.00
BSQUARE (BSQR) United States $0.050B 0.00
NetSol Technologies (NTWK) United States $0.044B 17.73
GSE Systems (GVP) United States $0.028B 0.00